createdAt,value
2019-04-20T00:01:31.998Z,4.10
2019-04-20T00:03:57.377Z,4.37
2019-04-20T00:06:27.112Z,3.80
2019-04-20T00:09:01.829Z,4.00
2019-04-20T00:11:28.340Z,4.40
2019-04-20T00:14:03.257Z,3.87
2019-04-20T00:16:25.176Z,3.80
2019-04-20T00:18:58.216Z,4.20
2019-04-20T00:21:46.989Z,3.67
2019-04-20T00:24:27.291Z,4.40
2019-04-20T00:27:16.214Z,3.83
2019-04-20T00:29:47.824Z,4.03
2019-04-20T00:32:06.316Z,4.70
2019-04-20T00:34:31.450Z,3.83
2019-04-20T00:36:56.145Z,4.80
2019-04-20T00:39:25.764Z,3.93
2019-04-20T00:42:01.095Z,4.30
2019-04-20T00:44:30.386Z,4.20
2019-04-20T00:47:08.465Z,4.20
2019-04-20T00:49:38.896Z,3.73
2019-04-20T00:54:30.555Z,4.53
2019-04-20T00:57:09.274Z,3.97
2019-04-20T00:59:51.764Z,4.30
2019-04-20T01:02:18.017Z,4.40
2019-04-20T01:04:47.936Z,4.80
2019-04-20T01:07:39.462Z,4.37
2019-04-20T01:10:04.999Z,4.67
2019-04-20T01:12:36.873Z,4.57
2019-04-20T01:15:07.809Z,4.70
2019-04-20T01:17:37.941Z,4.83
2019-04-20T01:20:05.181Z,4.70
2019-04-20T01:22:40.273Z,4.73
2019-04-20T01:25:09.837Z,4.80
2019-04-20T01:27:50.118Z,4.43
2019-04-20T01:30:14.739Z,4.87
2019-04-20T01:32:55.165Z,5.47
2019-04-20T01:35:29.019Z,4.40
2019-04-20T01:37:57.500Z,4.80
2019-04-20T01:40:11.373Z,5.00
2019-04-20T01:42:42.469Z,4.60
2019-04-20T01:45:18.029Z,4.90
2019-04-20T01:47:47.199Z,6.13
2019-04-20T01:50:20.309Z,4.67
2019-04-20T01:52:55.019Z,5.23
2019-04-20T01:55:34.637Z,4.97
2019-04-20T01:58:11.889Z,5.00
2019-04-20T02:00:39.910Z,5.50
2019-04-20T02:03:31.315Z,4.90
2019-04-20T02:06:04.487Z,5.10
2019-04-20T02:08:29.869Z,4.63
2019-04-20T02:11:01.921Z,5.23
2019-04-20T02:13:36.134Z,5.20
2019-04-20T02:16:09.766Z,5.40
2019-04-20T02:18:40.100Z,5.23
2019-04-20T02:21:15.197Z,5.40
2019-04-20T02:23:38.472Z,5.63
2019-04-20T02:26:00.774Z,4.90
2019-04-20T02:28:56.867Z,6.00
2019-04-20T02:31:55.371Z,5.60
2019-04-20T02:34:06.968Z,5.20
2019-04-20T02:36:53.225Z,4.97
2019-04-20T02:42:05.429Z,5.53
2019-04-20T02:44:42.627Z,5.30
2019-04-20T02:46:55.842Z,5.80
2019-04-20T02:51:52.711Z,6.20
2019-04-20T02:54:26.454Z,5.90
2019-04-20T03:01:45.536Z,5.83
2019-04-20T03:03:58.234Z,5.80
2019-04-20T03:06:36.576Z,6.23
2019-04-20T03:09:20.141Z,6.53
2019-04-20T03:11:58.471Z,6.60
2019-04-20T03:14:16.358Z,6.60
2019-04-20T03:16:43.678Z,6.90
2019-04-20T03:19:11.788Z,6.70
2019-04-20T03:21:54.188Z,8.47
2019-04-20T03:24:26.834Z,6.90
2019-04-20T03:27:20.904Z,7.03
2019-04-20T03:30:22.548Z,7.13
2019-04-20T03:33:02.269Z,6.87
2019-04-20T03:35:19.992Z,6.67
2019-04-20T03:37:49.816Z,7.07
2019-04-20T03:40:09.894Z,7.43
2019-04-20T03:42:26.729Z,7.20
2019-04-20T03:45:00.525Z,7.80
2019-04-20T03:47:36.977Z,7.70
2019-04-20T03:50:18.541Z,7.50
2019-04-20T03:52:57.755Z,7.43
2019-04-20T03:55:51.248Z,7.53
2019-04-20T03:58:24.439Z,8.33
2019-04-20T04:01:03.888Z,7.40
2019-04-20T04:03:53.419Z,8.30
2019-04-20T04:06:16.084Z,8.60
2019-04-20T04:08:39.529Z,8.00
2019-04-20T04:11:26.212Z,9.03
2019-04-20T04:13:37.776Z,8.50
2019-04-20T04:16:10.181Z,8.27
2019-04-20T04:18:40.988Z,8.87
2019-04-20T04:21:12.654Z,10.37
2019-04-20T04:23:56.150Z,11.33
2019-04-20T04:26:27.532Z,11.33
2019-04-20T04:28:56.328Z,10.60
2019-04-20T04:31:33.624Z,10.53
2019-04-20T04:34:12.480Z,10.00
2019-04-20T04:36:26.139Z,9.50
2019-04-20T04:39:06.020Z,8.67
2019-04-20T04:41:31.093Z,9.03
2019-04-20T04:44:00.167Z,9.27
2019-04-20T04:46:14.477Z,9.47
2019-04-20T04:48:48.278Z,10.03
2019-04-20T04:51:21.193Z,11.30
2019-04-20T04:53:55.116Z,10.50
2019-04-20T04:56:22.174Z,11.10
2019-04-20T04:58:49.600Z,10.77
2019-04-20T05:01:22.602Z,10.80
2019-04-20T05:04:19.233Z,12.00
2019-04-20T05:06:33.031Z,11.13
2019-04-20T05:08:54.844Z,11.50
2019-04-20T05:11:21.702Z,13.53
2019-04-20T05:13:56.628Z,16.70
2019-04-20T05:16:42.151Z,17.40
2019-04-20T05:19:15.898Z,18.40
2019-04-20T05:22:03.941Z,18.77
2019-04-20T05:24:48.159Z,18.43
2019-04-20T05:27:51.275Z,18.73
2019-04-20T05:30:01.524Z,19.53
2019-04-20T05:32:39.677Z,19.27
2019-04-20T05:35:23.767Z,17.63
2019-04-20T05:40:22.714Z,16.00
2019-04-20T05:43:01.907Z,14.23
2019-04-20T05:45:24.907Z,13.60
2019-04-20T05:47:52.439Z,14.20
2019-04-20T05:50:31.557Z,13.83
2019-04-20T05:53:07.724Z,13.00
2019-04-20T05:55:35.787Z,11.70
2019-04-20T05:58:02.102Z,10.80
2019-04-20T06:00:37.452Z,10.40
2019-04-20T06:03:02.356Z,10.97
2019-04-20T06:05:38.560Z,10.67
2019-04-20T06:08:05.464Z,11.23
2019-04-20T06:10:40.204Z,10.70
2019-04-20T06:13:00.256Z,10.53
2019-04-20T06:15:46.830Z,11.30
2019-04-20T06:18:28.906Z,10.50
2019-04-20T06:21:12.105Z,10.50
2019-04-20T06:23:56.413Z,9.80
2019-04-20T06:26:43.466Z,8.63
2019-04-20T06:28:50.832Z,9.20
2019-04-20T06:31:42.171Z,8.47
2019-04-20T06:34:33.118Z,8.53
2019-04-20T06:36:57.332Z,9.37
2019-04-20T06:42:10.791Z,11.97
2019-04-20T06:52:23.370Z,9.27
2019-04-20T06:55:03.207Z,9.30
2019-04-20T06:57:34.603Z,9.30
2019-04-20T07:00:08.574Z,8.50
2019-04-20T07:02:35.953Z,9.63
2019-04-20T07:05:05.357Z,9.40
2019-04-20T07:07:33.891Z,8.73
2019-04-20T07:12:32.783Z,8.87
2019-04-20T07:14:55.558Z,9.13
2019-04-20T07:20:42.738Z,8.23
2019-04-20T07:25:40.298Z,8.57
2019-04-20T07:28:09.806Z,8.20
2019-04-20T07:30:35.691Z,8.43
2019-04-20T07:33:04.302Z,8.67
2019-04-20T07:35:38.784Z,8.20
2019-04-20T07:38:23.407Z,8.50
2019-04-20T07:40:35.639Z,8.37
2019-04-20T07:43:02.893Z,7.93
2019-04-20T07:45:33.194Z,8.60
2019-04-20T07:48:13.665Z,8.80
2019-04-20T07:50:32.481Z,7.97
2019-04-20T07:53:01.535Z,8.37
2019-04-20T07:55:46.046Z,8.03
2019-04-20T07:58:01.318Z,8.60
2019-04-20T08:00:51.063Z,8.27
2019-04-20T08:03:44.213Z,8.10
2019-04-20T08:06:16.496Z,8.27
2019-04-20T08:08:56.068Z,7.80
2019-04-20T08:11:22.884Z,7.53
2019-04-20T08:14:02.010Z,7.87
2019-04-20T08:16:40.850Z,8.03
2019-04-20T08:18:53.789Z,7.40
2019-04-20T08:21:32.702Z,7.67
2019-04-20T08:23:58.145Z,7.53
2019-04-20T08:26:16.231Z,7.57
2019-04-20T08:28:52.845Z,7.97
2019-04-20T08:31:50.478Z,8.00
2019-04-20T08:34:32.447Z,7.97
2019-04-20T08:36:56.628Z,8.00
2019-04-20T08:39:37.469Z,7.63
2019-04-20T08:42:01.295Z,7.17
2019-04-20T08:44:51.453Z,7.50
2019-04-20T08:47:10.284Z,7.77
2019-04-20T08:49:37.820Z,6.70
2019-04-20T08:54:28.341Z,6.37
2019-04-20T08:56:45.169Z,7.43
2019-04-20T08:59:09.518Z,6.67
2019-04-20T09:01:39.406Z,6.97
2019-04-20T09:04:17.772Z,6.57
2019-04-20T09:06:52.205Z,6.70
2019-04-20T09:09:37.772Z,7.10
2019-04-20T09:12:16.815Z,6.63
2019-04-20T09:14:21.393Z,6.50
2019-04-20T09:16:59.780Z,6.87
2019-04-20T09:19:37.951Z,6.57
2019-04-20T09:22:24.452Z,6.63
2019-04-20T09:25:14.475Z,6.40
2019-04-20T09:27:28.501Z,6.73
2019-04-20T09:30:00.198Z,6.87
2019-04-20T09:32:35.710Z,6.23
2019-04-20T09:35:07.806Z,6.03
2019-04-20T09:37:47.314Z,6.37
2019-04-20T09:40:45.466Z,6.27
2019-04-20T09:43:02.296Z,6.37
2019-04-20T09:45:56.424Z,6.17
2019-04-20T09:48:31.762Z,6.13
2019-04-20T09:51:15.025Z,5.33
2019-04-20T09:53:35.703Z,4.90
2019-04-20T09:56:08.840Z,5.07
2019-04-20T09:58:37.879Z,4.67
2019-04-20T10:01:08.357Z,4.83
2019-04-20T10:03:24.763Z,5.17
2019-04-20T10:05:53.649Z,5.07
2019-04-20T10:08:22.246Z,4.63
2019-04-20T10:10:51.188Z,5.43
2019-04-20T10:13:22.574Z,4.50
2019-04-20T10:15:51.278Z,4.40
2019-04-20T10:18:19.913Z,4.47
2019-04-20T10:20:47.789Z,3.97
2019-04-20T10:23:16.491Z,4.43
2019-04-20T10:25:44.747Z,4.77
2019-04-20T10:28:13.863Z,4.43
2019-04-20T10:30:41.733Z,4.30
2019-04-20T10:33:10.023Z,4.22
2019-04-20T10:35:37.403Z,3.55
2019-04-20T10:38:09.585Z,4.05
2019-04-20T10:40:46.144Z,3.87
2019-04-20T10:43:08.075Z,3.70
2019-04-20T10:45:37.038Z,3.90
2019-04-20T10:48:05.486Z,4.53
2019-04-20T10:50:34.760Z,4.35
2019-04-20T10:53:03.687Z,4.40
2019-04-20T10:55:31.511Z,4.25
2019-04-20T10:58:01.712Z,4.30
2019-04-20T11:00:41.920Z,3.90
2019-04-20T11:03:11.678Z,4.50
2019-04-20T11:05:40.573Z,4.42
2019-04-20T11:08:08.575Z,4.62
2019-04-20T11:10:52.054Z,4.83
2019-04-20T11:13:07.562Z,4.42
2019-04-20T11:15:36.378Z,3.70
2019-04-20T11:18:05.049Z,3.83
2019-04-20T11:20:35.203Z,4.10
2019-04-20T11:23:06.603Z,3.87
2019-04-20T11:25:35.324Z,3.83
2019-04-20T11:28:04.033Z,4.20
2019-04-20T11:30:32.424Z,4.10
2019-04-20T11:33:02.325Z,4.20
2019-04-20T11:35:35.999Z,3.95
2019-04-20T11:38:01.376Z,3.50
2019-04-20T11:40:29.321Z,4.33
2019-04-20T11:42:57.504Z,4.90
2019-04-20T11:45:26.782Z,5.10
2019-04-20T11:47:55.757Z,4.85
2019-04-20T11:50:25.199Z,4.75
2019-04-20T11:52:53.214Z,4.10
2019-04-20T11:55:22.374Z,3.87
2019-04-20T11:57:51.356Z,4.47
2019-04-20T12:00:25.619Z,5.05
2019-04-20T12:03:23.060Z,5.13
2019-04-20T12:05:46.619Z,5.10
2019-04-20T12:08:13.189Z,5.37
2019-04-20T12:10:43.615Z,4.73
2019-04-20T12:13:14.663Z,4.57
2019-04-20T12:15:43.509Z,4.23
2019-04-20T12:18:11.661Z,4.83
2019-04-20T12:20:40.836Z,5.07
2019-04-20T12:23:10.435Z,4.97
2019-04-20T12:25:40.881Z,5.35
2019-04-20T12:28:11.580Z,4.67
2019-04-20T12:30:40.089Z,5.00
2019-04-20T12:33:09.166Z,5.12
2019-04-20T12:35:38.389Z,4.90
2019-04-20T12:38:07.434Z,4.85
2019-04-20T12:40:35.818Z,4.85
2019-04-20T12:43:04.776Z,5.10
2019-04-20T12:45:33.552Z,4.40
2019-04-20T12:48:01.810Z,4.45
2019-04-20T12:50:29.884Z,4.17
2019-04-20T12:52:58.611Z,4.37
2019-04-20T12:55:28.350Z,4.42
2019-04-20T12:57:56.959Z,5.00
2019-04-20T13:00:41.455Z,5.12
2019-04-20T13:03:13.746Z,5.08
2019-04-20T13:05:43.625Z,4.97
2019-04-20T13:08:13.794Z,5.17
2019-04-20T13:10:45.033Z,4.42
2019-04-20T13:13:36.558Z,4.60
2019-04-20T13:16:16.344Z,5.17
2019-04-20T13:18:50.898Z,4.58
2019-04-20T13:21:19.090Z,5.37
2019-04-20T13:23:47.375Z,5.28
2019-04-20T13:26:15.675Z,4.35
2019-04-20T13:28:44.040Z,4.85
2019-04-20T13:31:13.537Z,4.60
2019-04-20T13:33:43.214Z,4.28
2019-04-20T13:36:12.492Z,4.95
2019-04-20T13:38:40.456Z,4.67
2019-04-20T13:41:09.505Z,5.05
2019-04-20T13:43:39.649Z,4.50
2019-04-20T13:46:09.061Z,5.55
2019-04-20T13:48:39.050Z,6.15
2019-04-20T13:51:07.851Z,5.85
2019-04-20T13:53:37.148Z,5.80
2019-04-20T13:56:05.792Z,5.37
2019-04-20T13:58:51.886Z,6.12
2019-04-20T14:01:41.136Z,5.40
2019-04-20T14:04:16.549Z,5.35
2019-04-20T14:06:45.670Z,5.58
2019-04-20T14:09:13.550Z,6.60
2019-04-20T14:11:43.326Z,6.22
2019-04-20T14:14:13.110Z,6.78
2019-04-20T14:16:41.462Z,7.15
2019-04-20T14:19:09.329Z,7.22
2019-04-20T14:21:38.445Z,5.92
2019-04-20T14:24:06.736Z,5.72
2019-04-20T14:26:38.596Z,4.92
2019-04-20T14:29:05.545Z,5.20
2019-04-20T14:31:34.009Z,4.95
2019-04-20T14:34:04.648Z,5.85
2019-04-20T14:36:32.942Z,5.22
2019-04-20T14:39:02.445Z,6.15
2019-04-20T14:41:30.730Z,6.22
2019-04-20T14:43:58.657Z,6.20
2019-04-20T14:46:27.888Z,6.17
2019-04-20T14:48:56.680Z,6.15
2019-04-20T14:51:25.803Z,6.42
2019-04-20T14:53:54.119Z,6.45
2019-04-20T14:56:23.454Z,5.45
2019-04-20T14:58:57.635Z,5.47
2019-04-20T15:01:34.704Z,5.70
2019-04-20T15:04:09.331Z,6.62
2019-04-20T15:06:36.151Z,6.37
2019-04-20T15:09:06.457Z,5.90
2019-04-20T15:11:40.741Z,5.80
2019-04-20T15:14:08.866Z,6.20
2019-04-20T15:16:38.360Z,6.10
2019-04-20T15:19:41.462Z,5.35
2019-04-20T15:22:27.381Z,5.85
2019-04-20T15:24:55.726Z,5.87
2019-04-20T15:27:24.630Z,5.78
2019-04-20T15:29:53.995Z,5.08
2019-04-20T15:32:22.908Z,6.03
2019-04-20T15:34:51.040Z,6.17
2019-04-20T15:37:20.209Z,6.20
2019-04-20T15:39:49.024Z,5.80
2019-04-20T15:42:17.423Z,5.58
2019-04-20T15:44:45.625Z,5.85
2019-04-20T15:47:13.478Z,6.53
2019-04-20T15:49:42.041Z,6.10
2019-04-20T15:52:12.502Z,5.33
2019-04-20T15:54:41.030Z,5.58
2019-04-20T15:57:16.524Z,6.30
2019-04-20T15:59:40.450Z,6.35
2019-04-20T16:02:23.313Z,6.47
2019-04-20T16:05:16.559Z,5.67
2019-04-20T16:07:51.109Z,5.95
2019-04-20T16:10:15.270Z,6.00
2019-04-20T16:12:44.808Z,6.42
2019-04-20T16:15:13.667Z,5.72
2019-04-20T16:17:45.939Z,5.53
2019-04-20T16:20:17.898Z,5.42
2019-04-20T16:22:42.684Z,5.40
2019-04-20T16:25:23.481Z,5.78
2019-04-20T16:27:51.868Z,5.55
2019-04-20T16:30:20.159Z,6.07
2019-04-20T16:32:48.387Z,5.93
2019-04-20T16:35:16.657Z,5.92
2019-04-20T16:37:44.949Z,5.87
2019-04-20T16:40:13.763Z,5.93
2019-04-20T16:42:42.733Z,5.60
2019-04-20T16:45:11.725Z,5.90
2019-04-20T16:47:39.922Z,5.77
2019-04-20T16:50:09.176Z,6.07
2019-04-20T16:52:38.896Z,6.10
2019-04-20T16:55:08.240Z,5.70
2019-04-20T16:57:39.673Z,5.27
2019-04-20T17:00:07.563Z,5.40
2019-04-20T17:02:36.215Z,6.00
2019-04-20T17:05:05.206Z,6.00
2019-04-20T17:07:37.282Z,6.07
2019-04-20T17:10:07.510Z,5.73
2019-04-20T17:12:35.904Z,6.07
2019-04-20T17:15:05.515Z,5.83
2019-04-20T17:17:33.897Z,6.20
2019-04-20T17:20:02.153Z,6.00
2019-04-20T17:22:30.068Z,6.70
2019-04-20T17:24:58.407Z,8.27
2019-04-20T17:27:46.827Z,5.90
2019-04-20T17:30:39.982Z,6.27
2019-04-20T17:33:24.052Z,6.07
2019-04-20T17:35:57.265Z,6.50
2019-04-20T17:38:22.329Z,6.33
2019-04-20T17:41:06.378Z,6.00
2019-04-20T17:43:30.611Z,5.20
2019-04-20T17:45:58.216Z,5.80
2019-04-20T17:48:33.300Z,5.77
2019-04-20T17:51:10.865Z,5.60
2019-04-20T17:53:47.390Z,5.57
2019-04-20T17:56:10.484Z,6.47
2019-04-20T17:58:41.338Z,5.40
2019-04-20T18:01:52.812Z,5.73
2019-04-20T18:04:44.329Z,5.43
2019-04-20T18:06:56.009Z,5.17
2019-04-20T18:09:34.574Z,5.40
2019-04-20T18:11:47.218Z,5.50
2019-04-20T18:14:35.785Z,5.40
2019-04-20T18:17:06.642Z,5.67
2019-04-20T18:19:24.800Z,6.13
2019-04-20T18:21:58.243Z,5.60
2019-04-20T18:24:50.994Z,5.07
2019-04-20T18:27:18.760Z,5.10
2019-04-20T18:29:49.107Z,6.40
2019-04-20T18:32:09.361Z,6.13
2019-04-20T18:35:06.648Z,5.70
2019-04-20T18:37:34.432Z,5.23
2019-04-20T18:40:10.754Z,5.57
2019-04-20T18:42:39.843Z,6.10
2019-04-20T18:45:21.664Z,6.53
2019-04-20T18:47:59.232Z,6.37
2019-04-20T18:50:16.528Z,5.43
2019-04-20T18:52:39.935Z,6.63
2019-04-20T18:55:17.383Z,7.17
2019-04-20T18:57:41.609Z,5.97
2019-04-20T19:00:17.999Z,6.40
2019-04-20T19:02:46.854Z,6.10
2019-04-20T19:05:13.617Z,6.53
2019-04-20T19:07:52.593Z,5.87
2019-04-20T19:10:18.621Z,6.20
2019-04-20T19:12:52.290Z,7.73
2019-04-20T19:15:53.370Z,7.13
2019-04-20T19:18:20.904Z,6.63
2019-04-20T19:20:41.359Z,7.23
2019-04-20T19:23:10.325Z,8.47
2019-04-20T19:25:40.936Z,9.37
2019-04-20T19:28:08.899Z,11.33
2019-04-20T19:30:46.828Z,12.53
2019-04-20T19:33:27.577Z,10.07
2019-04-20T19:35:52.239Z,7.90
2019-04-20T19:38:19.894Z,6.90
2019-04-20T19:40:53.863Z,5.17
2019-04-20T19:43:22.646Z,5.37
2019-04-20T19:46:24.419Z,5.60
2019-04-20T19:48:27.899Z,5.03
2019-04-20T19:51:08.377Z,4.90
2019-04-20T19:53:36.704Z,4.63
2019-04-20T19:55:58.851Z,4.90
2019-04-20T19:58:30.349Z,4.87
2019-04-20T20:00:51.358Z,5.00
2019-04-20T20:03:17.619Z,5.23
2019-04-20T20:05:48.324Z,6.00
2019-04-20T20:08:21.016Z,6.40
2019-04-20T20:10:46.389Z,7.27
2019-04-20T20:13:15.054Z,7.30
2019-04-20T20:15:45.092Z,7.67
2019-04-20T20:18:30.877Z,8.27
2019-04-20T20:21:00.201Z,7.83
2019-04-20T20:23:14.359Z,8.17
2019-04-20T20:25:45.914Z,7.73
2019-04-20T20:28:25.875Z,8.50
2019-04-20T20:30:57.760Z,8.73
2019-04-20T20:33:29.359Z,8.50
2019-04-20T20:35:53.542Z,8.00
2019-04-20T20:38:22.416Z,7.30
2019-04-20T20:41:00.076Z,7.37
2019-04-20T20:43:28.162Z,8.10
2019-04-20T20:46:01.076Z,7.63
2019-04-20T20:48:29.683Z,7.27
2019-04-20T20:51:06.458Z,7.40
2019-04-20T20:53:36.346Z,6.97
2019-04-20T20:56:01.921Z,7.93
2019-04-20T20:58:33.684Z,10.20
2019-04-20T21:00:57.556Z,13.80
2019-04-20T21:03:29.225Z,12.10
2019-04-20T21:05:51.562Z,10.30
2019-04-20T21:08:21.631Z,9.03
2019-04-20T21:10:51.085Z,7.70
2019-04-20T21:13:21.285Z,6.40
2019-04-20T21:15:57.553Z,6.93
2019-04-20T21:18:43.647Z,6.40
2019-04-20T21:21:06.523Z,7.57
2019-04-20T21:23:34.169Z,6.80
2019-04-20T21:26:07.121Z,7.00
2019-04-20T21:28:40.520Z,10.40
2019-04-20T21:31:15.988Z,9.13
2019-04-20T21:33:40.852Z,7.47
2019-04-20T21:36:14.581Z,8.37
2019-04-20T21:38:42.740Z,6.30
2019-04-20T21:41:15.026Z,6.27
2019-04-20T21:43:44.442Z,7.37
2019-04-20T21:46:13.454Z,6.70
2019-04-20T21:48:55.923Z,7.83
2019-04-20T21:51:27.031Z,7.53
2019-04-20T21:53:42.446Z,7.20
2019-04-20T21:56:12.225Z,7.03
2019-04-20T21:58:48.156Z,6.73
2019-04-20T22:01:18.576Z,7.03
2019-04-20T22:03:40.583Z,6.40
2019-04-20T22:06:09.012Z,7.00
2019-04-20T22:08:40.432Z,6.37
2019-04-20T22:11:08.130Z,6.50
2019-04-20T22:13:39.863Z,6.47
2019-04-20T22:16:10.604Z,6.07
2019-04-20T22:18:48.565Z,6.67
2019-04-20T22:21:17.455Z,6.13
2019-04-20T22:23:58.278Z,6.20
2019-04-20T22:26:18.785Z,6.17
2019-04-20T22:28:38.293Z,6.43
2019-04-20T22:31:06.678Z,5.73
2019-04-20T22:33:39.807Z,6.10
2019-04-20T22:36:07.849Z,6.17
2019-04-20T22:38:58.110Z,6.13
2019-04-20T22:41:27.734Z,6.43
2019-04-20T22:43:55.041Z,6.43
2019-04-20T22:46:29.057Z,6.30
2019-04-20T22:49:14.375Z,6.27
2019-04-20T22:51:39.962Z,5.80
2019-04-20T22:54:12.287Z,6.30
2019-04-20T22:56:42.053Z,6.60
2019-04-20T22:59:02.219Z,5.77
2019-04-20T23:01:32.147Z,5.97
2019-04-20T23:03:54.893Z,6.53
2019-04-20T23:06:25.330Z,6.37
2019-04-20T23:08:59.515Z,6.37
2019-04-20T23:11:28.474Z,6.20
2019-04-20T23:13:53.834Z,6.80
2019-04-20T23:16:21.440Z,5.70
2019-04-20T23:18:49.944Z,5.67
2019-04-20T23:21:19.677Z,6.13
2019-04-20T23:23:52.541Z,5.43
2019-04-20T23:26:27.869Z,6.27
2019-04-20T23:28:53.600Z,6.03
2019-04-20T23:31:22.292Z,6.23
2019-04-20T23:33:49.894Z,6.13
2019-04-20T23:36:30.359Z,6.50
2019-04-20T23:38:54.634Z,6.17
2019-04-20T23:41:20.071Z,8.00
2019-04-20T23:44:18.955Z,8.20
2019-04-20T23:47:18.370Z,8.83
2019-04-20T23:50:05.673Z,8.50
2019-04-20T23:52:42.628Z,8.37
2019-04-20T23:54:58.194Z,8.07
2019-04-20T23:57:21.846Z,7.37
2019-04-20T23:59:51.537Z,8.43
